createdAt,value
2022-08-02T00:03:11.618Z,11.77
2022-08-02T00:09:15.750Z,11.65
2022-08-02T00:15:20.513Z,11.75
2022-08-02T00:21:23.889Z,11.52
2022-08-02T00:27:27.305Z,11.00
2022-08-02T00:34:28.466Z,12.20
2022-08-02T00:39:55.429Z,11.57
2022-08-02T00:46:02.966Z,10.57
2022-08-02T00:52:09.278Z,10.05
2022-08-02T00:58:12.735Z,10.57
2022-08-02T01:04:16.169Z,10.65
2022-08-02T01:10:34.831Z,9.80
2022-08-02T01:16:39.753Z,10.55
2022-08-02T01:23:02.362Z,10.27
2022-08-02T01:29:10.600Z,10.27
2022-08-02T01:35:16.535Z,10.55
2022-08-02T01:41:21.709Z,10.38
2022-08-02T01:47:28.129Z,11.13
2022-08-02T01:53:32.417Z,10.57
2022-08-02T01:59:36.965Z,11.60
2022-08-02T02:05:42.617Z,11.68
2022-08-02T02:12:06.122Z,11.82
2022-08-02T02:18:13.706Z,12.13
2022-08-02T02:24:18.783Z,11.10
2022-08-02T02:30:22.408Z,10.32
2022-08-02T02:36:26.314Z,8.95
2022-08-02T02:42:32.689Z,8.65
2022-08-02T02:48:37.105Z,8.85
2022-08-02T02:54:40.770Z,9.10
2022-08-02T03:01:03.396Z,9.07
2022-08-02T03:07:06.848Z,8.98
2022-08-02T03:13:10.228Z,8.13
2022-08-02T03:19:15.351Z,8.00
2022-08-02T03:25:19.833Z,7.80
2022-08-02T03:31:23.457Z,8.82
2022-08-02T03:37:28.718Z,8.23
2022-08-02T03:43:32.495Z,8.45
2022-08-02T03:49:36.074Z,8.05
2022-08-02T03:55:41.343Z,9.07
2022-08-02T04:01:44.701Z,8.32
2022-08-02T04:08:32.724Z,7.93
2022-08-02T04:14:14.334Z,7.97
2022-08-02T04:20:20.347Z,7.22
2022-08-02T04:26:28.249Z,7.22
2022-08-02T04:32:33.616Z,7.32
2022-08-02T04:38:36.981Z,7.75
2022-08-02T04:44:40.349Z,7.32
2022-08-02T04:50:45.383Z,7.65
2022-08-02T04:56:49.145Z,8.13
2022-08-02T05:02:54.172Z,8.32
2022-08-02T05:08:59.208Z,8.25
2022-08-02T05:15:02.765Z,8.63
2022-08-02T05:21:06.109Z,8.23
2022-08-02T05:27:17.357Z,7.85
2022-08-02T05:33:25.443Z,7.97
2022-08-02T05:39:31.786Z,7.72
2022-08-02T05:45:37.316Z,7.65
2022-08-02T05:51:41.643Z,7.57
2022-08-02T05:57:49.910Z,8.20
2022-08-02T06:03:56.226Z,7.75
2022-08-02T06:10:00.623Z,6.05
2022-08-02T06:16:04.986Z,6.60
2022-08-02T06:22:33.376Z,5.97
2022-08-02T06:28:39.643Z,5.38
2022-08-02T06:34:43.652Z,4.25
2022-08-02T06:40:50.552Z,3.85
2022-08-02T06:47:11.841Z,4.43
2022-08-02T06:53:16.138Z,2.83
2022-08-02T06:59:20.869Z,2.88
2022-08-02T07:05:24.815Z,2.20
2022-08-02T07:11:28.332Z,2.85
2022-08-02T07:17:33.140Z,1.90
2022-08-02T07:23:36.534Z,2.30
2022-08-02T07:29:46.221Z,2.28
2022-08-02T07:35:52.063Z,1.70
2022-08-02T07:41:55.683Z,3.15
2022-08-02T07:47:59.088Z,1.88
2022-08-02T07:54:04.818Z,1.92
2022-08-02T08:00:09.718Z,1.95
2022-08-02T08:06:13.180Z,2.08
2022-08-02T08:12:18.125Z,1.60
2022-08-02T08:18:21.825Z,2.05
2022-08-02T08:24:25.204Z,1.50
2022-08-02T08:30:30.040Z,2.03
2022-08-02T08:36:33.474Z,1.95
2022-08-02T08:42:38.076Z,2.10
2022-08-02T08:48:45.479Z,1.58
2022-08-02T08:54:50.083Z,2.17
2022-08-02T09:00:53.827Z,1.70
2022-08-02T09:06:59.155Z,1.70
2022-08-02T09:13:38.591Z,1.58
2022-08-02T09:19:31.749Z,1.50
2022-08-02T09:25:37.146Z,1.60
2022-08-02T09:31:49.597Z,1.75
2022-08-02T09:37:53.436Z,1.45
2022-08-02T09:44:05.334Z,1.40
2022-08-02T09:50:13.396Z,1.85
2022-08-02T09:56:30.229Z,1.70
2022-08-02T10:02:40.439Z,1.65
2022-08-02T10:08:44.658Z,1.95
2022-08-02T10:14:48.042Z,1.83
2022-08-02T10:20:54.300Z,1.70
2022-08-02T10:26:57.969Z,1.67
2022-08-02T10:33:02.194Z,1.73
2022-08-02T10:39:07.330Z,1.90
2022-08-02T10:45:11.378Z,1.70
2022-08-02T10:51:14.854Z,1.95
2022-08-02T10:57:23.776Z,2.10
2022-08-02T11:03:39.722Z,1.50
2022-08-02T11:09:44.041Z,1.80
2022-08-02T11:15:57.075Z,1.80
2022-08-02T11:22:04.186Z,1.50
2022-08-02T11:28:12.548Z,1.55
2022-08-02T11:34:36.890Z,1.60
2022-08-02T11:40:41.550Z,1.70
2022-08-02T11:46:45.054Z,1.50
2022-08-02T11:52:49.979Z,2.15
2022-08-02T11:59:03.852Z,1.80
2022-08-02T12:05:09.007Z,1.60
2022-08-02T12:11:14.244Z,2.30
2022-08-02T12:17:41.992Z,2.67
2022-08-02T12:24:00.093Z,2.10
2022-08-02T12:30:08.272Z,1.80
2022-08-02T12:36:16.469Z,1.55
2022-08-02T12:42:19.930Z,1.30
2022-08-02T12:48:38.330Z,1.40
2022-08-02T12:54:43.849Z,1.00
2022-08-02T13:00:54.010Z,1.20
2022-08-02T13:06:59.613Z,1.50
2022-08-02T13:13:02.996Z,1.80
2022-08-02T13:19:06.389Z,1.20
2022-08-02T13:25:11.596Z,1.70
2022-08-02T13:31:36.001Z,1.00
2022-08-02T13:37:41.824Z,1.33
2022-08-02T13:43:53.669Z,1.38
2022-08-02T13:49:59.107Z,1.50
2022-08-02T13:56:02.998Z,1.25
2022-08-02T14:02:07.906Z,1.10
2022-08-02T14:08:16.183Z,0.98
2022-08-02T14:14:20.161Z,1.17
2022-08-02T14:20:30.210Z,1.08
2022-08-02T14:26:33.850Z,1.80
2022-08-02T14:32:37.237Z,1.00
2022-08-02T14:38:41.985Z,1.10
2022-08-02T14:44:45.375Z,0.90
2022-08-02T14:50:49.050Z,1.05
2022-08-02T14:56:53.922Z,1.13
2022-08-02T15:02:57.342Z,0.93
2022-08-02T15:09:00.760Z,0.90
2022-08-02T15:15:05.782Z,0.90
2022-08-02T15:21:40.408Z,0.90
2022-08-02T15:27:33.870Z,0.70
2022-08-02T15:33:42.408Z,0.90
2022-08-02T15:39:45.770Z,0.80
2022-08-02T15:45:49.156Z,1.15
2022-08-02T15:51:54.580Z,0.80
2022-08-02T15:57:57.934Z,0.95
2022-08-02T16:04:01.633Z,0.70
2022-08-02T16:10:13.796Z,0.95
2022-08-02T16:16:17.290Z,0.90
2022-08-02T16:22:20.788Z,0.90
2022-08-02T16:28:25.683Z,0.82
2022-08-02T16:34:40.268Z,0.98
2022-08-02T16:40:52.434Z,0.80
2022-08-02T16:46:57.492Z,0.82
2022-08-02T16:53:07.560Z,0.90
2022-08-02T16:59:12.921Z,1.10
2022-08-02T17:05:17.783Z,0.82
2022-08-02T17:11:21.369Z,1.13
2022-08-02T17:17:34.068Z,1.00
2022-08-02T17:24:04.025Z,1.00
2022-08-02T17:30:02.954Z,0.80
2022-08-02T17:36:06.896Z,1.15
2022-08-02T17:42:19.717Z,0.80
2022-08-02T17:48:29.224Z,1.00
2022-08-02T17:54:40.260Z,1.10
2022-08-02T18:00:45.257Z,1.10
2022-08-02T18:06:49.343Z,1.17
2022-08-02T18:12:53.899Z,0.85
2022-08-02T18:19:03.109Z,1.50
2022-08-02T18:25:09.041Z,1.27
2022-08-02T18:31:22.364Z,1.33
2022-08-02T18:37:28.764Z,1.27
2022-08-02T18:43:46.268Z,1.08
2022-08-02T18:49:56.038Z,0.77
2022-08-02T18:56:03.934Z,0.73
2022-08-02T19:02:07.614Z,1.08
2022-08-02T19:08:11.113Z,1.02
2022-08-02T19:14:23.941Z,1.20
2022-08-02T19:20:33.414Z,1.42
2022-08-02T19:26:39.741Z,1.45
2022-08-02T19:32:59.492Z,1.85
2022-08-02T19:39:08.201Z,1.77
2022-08-02T19:45:13.964Z,1.40
2022-08-02T19:51:50.033Z,1.10
2022-08-02T19:57:42.755Z,1.60
2022-08-02T20:03:52.177Z,1.70
2022-08-02T20:09:57.890Z,1.48
2022-08-02T20:16:01.519Z,1.63
2022-08-02T20:22:05.648Z,1.45
2022-08-02T20:28:11.698Z,1.13
2022-08-02T20:34:16.463Z,1.00
2022-08-02T20:40:20.827Z,0.98
2022-08-02T20:46:25.593Z,0.90
2022-08-02T20:52:28.953Z,1.30
2022-08-02T20:58:33.646Z,1.20
2022-08-02T21:04:38.411Z,0.98
2022-08-02T21:10:50.226Z,1.10
2022-08-02T21:16:55.551Z,1.23
2022-08-02T21:23:00.580Z,0.98
2022-08-02T21:29:04.477Z,1.00
2022-08-02T21:35:09.705Z,1.10
2022-08-02T21:41:15.017Z,1.30
2022-08-02T21:47:26.823Z,1.25
2022-08-02T21:53:42.586Z,1.25
2022-08-02T21:59:48.117Z,1.52
2022-08-02T22:05:56.542Z,1.17
2022-08-02T22:11:59.930Z,1.40
2022-08-02T22:18:04.659Z,1.30
2022-08-02T22:24:13.048Z,1.20
2022-08-02T22:30:22.914Z,1.17
2022-08-02T22:36:32.135Z,0.70
2022-08-02T22:42:35.502Z,1.33
2022-08-02T22:48:40.046Z,1.52
2022-08-02T22:54:45.038Z,1.63
2022-08-02T23:00:48.422Z,1.50
2022-08-02T23:06:51.810Z,1.73
2022-08-02T23:12:59.122Z,1.70
2022-08-02T23:19:20.041Z,1.33
2022-08-02T23:25:23.705Z,1.67
2022-08-02T23:31:32.889Z,1.30
2022-08-02T23:37:59.522Z,1.38
2022-08-02T23:44:13.510Z,1.80
2022-08-02T23:50:19.147Z,1.50
2022-08-02T23:56:22.540Z,1.50
